sensor_id;sensor_type;location;lat;lon;timestamp;temperature;humidity
70947;DHT22;58605;48.700;8.760;2022-07-30T00:02:24;19.50;76.30
70947;DHT22;58605;48.700;8.760;2022-07-30T00:04:50;19.60;75.80
70947;DHT22;58605;48.700;8.760;2022-07-30T00:07:16;19.70;75.60
70947;DHT22;58605;48.700;8.760;2022-07-30T00:09:44;19.70;75.50
70947;DHT22;58605;48.700;8.760;2022-07-30T00:12:10;19.70;75.30
70947;DHT22;58605;48.700;8.760;2022-07-30T00:14:36;19.70;75.10
70947;DHT22;58605;48.700;8.760;2022-07-30T00:17:03;19.70;74.90
70947;DHT22;58605;48.700;8.760;2022-07-30T00:19:29;19.90;74.80
70947;DHT22;58605;48.700;8.760;2022-07-30T00:21:55;19.90;74.60
70947;DHT22;58605;48.700;8.760;2022-07-30T00:24:22;19.90;74.60
70947;DHT22;58605;48.700;8.760;2022-07-30T00:26:49;19.90;75.00
70947;DHT22;58605;48.700;8.760;2022-07-30T00:29:15;19.90;74.90
70947;DHT22;58605;48.700;8.760;2022-07-30T00:31:41;19.90;75.00
70947;DHT22;58605;48.700;8.760;2022-07-30T00:34:08;20.00;75.10
70947;DHT22;58605;48.700;8.760;2022-07-30T00:36:34;20.00;75.10
70947;DHT22;58605;48.700;8.760;2022-07-30T00:39:00;20.00;74.80
70947;DHT22;58605;48.700;8.760;2022-07-30T00:41:26;20.10;75.00
70947;DHT22;58605;48.700;8.760;2022-07-30T00:43:54;20.10;74.70
70947;DHT22;58605;48.700;8.760;2022-07-30T00:46:20;20.20;74.80
70947;DHT22;58605;48.700;8.760;2022-07-30T00:48:46;20.20;74.80
70947;DHT22;58605;48.700;8.760;2022-07-30T00:51:12;20.20;74.90
70947;DHT22;58605;48.700;8.760;2022-07-30T00:53:38;20.10;75.00
70947;DHT22;58605;48.700;8.760;2022-07-30T00:56:05;20.10;75.10
70947;DHT22;58605;48.700;8.760;2022-07-30T00:58:31;20.00;75.10
70947;DHT22;58605;48.700;8.760;2022-07-30T01:00:58;20.00;75.00
70947;DHT22;58605;48.700;8.760;2022-07-30T01:03:25;20.20;74.90
70947;DHT22;58605;48.700;8.760;2022-07-30T01:05:51;20.10;74.80
70947;DHT22;58605;48.700;8.760;2022-07-30T01:08:17;20.10;74.90
70947;DHT22;58605;48.700;8.760;2022-07-30T01:10:43;20.00;75.20
70947;DHT22;58605;48.700;8.760;2022-07-30T01:13:09;19.90;75.60
70947;DHT22;58605;48.700;8.760;2022-07-30T01:15:37;19.80;75.70
70947;DHT22;58605;48.700;8.760;2022-07-30T01:18:06;19.80;75.80
70947;DHT22;58605;48.700;8.760;2022-07-30T01:20:39;19.80;76.00
70947;DHT22;58605;48.700;8.760;2022-07-30T01:23:12;19.70;76.50
70947;DHT22;58605;48.700;8.760;2022-07-30T01:25:50;19.70;76.60
70947;DHT22;58605;48.700;8.760;2022-07-30T01:28:21;19.70;76.60
70947;DHT22;58605;48.700;8.760;2022-07-30T01:30:48;19.60;76.80
70947;DHT22;58605;48.700;8.760;2022-07-30T01:33:16;19.60;77.70
70947;DHT22;58605;48.700;8.760;2022-07-30T01:35:45;19.50;77.00
70947;DHT22;58605;48.700;8.760;2022-07-30T01:38:13;19.50;77.10
70947;DHT22;58605;48.700;8.760;2022-07-30T01:40:42;19.50;77.00
70947;DHT22;58605;48.700;8.760;2022-07-30T01:43:10;19.50;77.00
70947;DHT22;58605;48.700;8.760;2022-07-30T01:45:38;19.40;77.20
70947;DHT22;58605;48.700;8.760;2022-07-30T01:48:05;19.30;77.10
70947;DHT22;58605;48.700;8.760;2022-07-30T01:50:33;19.30;77.30
70947;DHT22;58605;48.700;8.760;2022-07-30T01:53:02;19.30;77.40
70947;DHT22;58605;48.700;8.760;2022-07-30T01:55:31;19.20;76.90
70947;DHT22;58605;48.700;8.760;2022-07-30T01:58:00;19.10;76.80
70947;DHT22;58605;48.700;8.760;2022-07-30T02:00:29;19.10;77.80
70947;DHT22;58605;48.700;8.760;2022-07-30T02:02:55;18.90;77.70
70947;DHT22;58605;48.700;8.760;2022-07-30T02:05:22;18.70;78.50
70947;DHT22;58605;48.700;8.760;2022-07-30T02:07:53;18.50;78.30
70947;DHT22;58605;48.700;8.760;2022-07-30T02:10:25;18.40;78.30
70947;DHT22;58605;48.700;8.760;2022-07-30T02:12:55;18.20;80.10
70947;DHT22;58605;48.700;8.760;2022-07-30T02:15:26;17.80;81.50
70947;DHT22;58605;48.700;8.760;2022-07-30T02:17:59;17.50;82.90
70947;DHT22;58605;48.700;8.760;2022-07-30T02:20:29;17.20;84.20
70947;DHT22;58605;48.700;8.760;2022-07-30T02:23:00;16.90;85.80
70947;DHT22;58605;48.700;8.760;2022-07-30T02:25:32;16.60;86.10
70947;DHT22;58605;48.700;8.760;2022-07-30T02:28:02;16.40;87.70
70947;DHT22;58605;48.700;8.760;2022-07-30T02:30:31;16.20;88.40
70947;DHT22;58605;48.700;8.760;2022-07-30T02:33:03;16.00;89.50
70947;DHT22;58605;48.700;8.760;2022-07-30T02:35:31;15.90;90.40
70947;DHT22;58605;48.700;8.760;2022-07-30T02:37:58;15.80;91.50
70947;DHT22;58605;48.700;8.760;2022-07-30T02:40:26;15.70;92.10
70947;DHT22;58605;48.700;8.760;2022-07-30T02:42:53;15.50;93.40
70947;DHT22;58605;48.700;8.760;2022-07-30T02:45:21;15.50;95.40
70947;DHT22;58605;48.700;8.760;2022-07-30T02:47:53;15.50;96.50
70947;DHT22;58605;48.700;8.760;2022-07-30T02:50:23;15.40;97.30
70947;DHT22;58605;48.700;8.760;2022-07-30T02:52:50;15.30;97.90
70947;DHT22;58605;48.700;8.760;2022-07-30T02:55:18;15.30;98.50
70947;DHT22;58605;48.700;8.760;2022-07-30T02:57:45;15.20;99.00
70947;DHT22;58605;48.700;8.760;2022-07-30T03:00:12;15.20;99.30
70947;DHT22;58605;48.700;8.760;2022-07-30T03:02:39;15.10;99.70
70947;DHT22;58605;48.700;8.760;2022-07-30T03:05:07;15.10;99.90
70947;DHT22;58605;48.700;8.760;2022-07-30T03:07:36;15.00;99.90
70947;DHT22;58605;48.700;8.760;2022-07-30T03:10:04;14.90;99.90
70947;DHT22;58605;48.700;8.760;2022-07-30T03:12:32;14.90;99.90
70947;DHT22;58605;48.700;8.760;2022-07-30T03:14:59;14.80;99.90
70947;DHT22;58605;48.700;8.760;2022-07-30T03:17:27;14.70;99.90
70947;DHT22;58605;48.700;8.760;2022-07-30T03:19:58;14.70;99.90
70947;DHT22;58605;48.700;8.760;2022-07-30T03:22:26;14.60;99.90
70947;DHT22;58605;48.700;8.760;2022-07-30T03:24:55;14.50;99.90
70947;DHT22;58605;48.700;8.760;2022-07-30T03:27:22;14.50;99.90
70947;DHT22;58605;48.700;8.760;2022-07-30T03:29:51;14.50;99.90
70947;DHT22;58605;48.700;8.760;2022-07-30T03:32:19;14.40;99.90
70947;DHT22;58605;48.700;8.760;2022-07-30T03:34:46;14.40;99.90
70947;DHT22;58605;48.700;8.760;2022-07-30T03:37:13;14.40;99.90
70947;DHT22;58605;48.700;8.760;2022-07-30T03:39:40;14.30;99.90
70947;DHT22;58605;48.700;8.760;2022-07-30T03:42:08;14.30;99.90
70947;DHT22;58605;48.700;8.760;2022-07-30T03:44:35;14.30;99.90
70947;DHT22;58605;48.700;8.760;2022-07-30T03:47:02;14.30;99.90
70947;DHT22;58605;48.700;8.760;2022-07-30T03:49:29;14.20;99.90
70947;DHT22;58605;48.700;8.760;2022-07-30T03:51:56;14.20;99.90
70947;DHT22;58605;48.700;8.760;2022-07-30T03:54:22;14.10;99.90
70947;DHT22;58605;48.700;8.760;2022-07-30T03:56:49;14.10;99.90
70947;DHT22;58605;48.700;8.760;2022-07-30T03:59:17;14.00;99.90
70947;DHT22;58605;48.700;8.760;2022-07-30T04:01:43;14.00;99.90
70947;DHT22;58605;48.700;8.760;2022-07-30T04:04:10;14.10;99.90
70947;DHT22;58605;48.700;8.760;2022-07-30T04:06:36;14.10;99.90
70947;DHT22;58605;48.700;8.760;2022-07-30T04:09:08;14.10;99.90
70947;DHT22;58605;48.700;8.760;2022-07-30T04:11:34;14.10;99.90
70947;DHT22;58605;48.700;8.760;2022-07-30T04:14:00;14.20;99.90
70947;DHT22;58605;48.700;8.760;2022-07-30T04:16:36;14.30;99.90
70947;DHT22;58605;48.700;8.760;2022-07-30T04:19:03;14.10;99.90
70947;DHT22;58605;48.700;8.760;2022-07-30T04:21:32;14.10;99.90
70947;DHT22;58605;48.700;8.760;2022-07-30T04:23:59;13.90;99.90
70947;DHT22;58605;48.700;8.760;2022-07-30T04:26:30;13.90;99.90
70947;DHT22;58605;48.700;8.760;2022-07-30T04:28:58;13.80;99.90
70947;DHT22;58605;48.700;8.760;2022-07-30T04:31:24;13.90;99.90
70947;DHT22;58605;48.700;8.760;2022-07-30T04:33:52;13.90;99.90
70947;DHT22;58605;48.700;8.760;2022-07-30T04:36:18;14.00;99.90
70947;DHT22;58605;48.700;8.760;2022-07-30T04:38:44;14.10;99.90
70947;DHT22;58605;48.700;8.760;2022-07-30T04:41:11;14.20;99.90
70947;DHT22;58605;48.700;8.760;2022-07-30T04:43:37;14.20;99.90
70947;DHT22;58605;48.700;8.760;2022-07-30T04:46:03;14.30;99.90
70947;DHT22;58605;48.700;8.760;2022-07-30T04:48:29;14.30;99.90
70947;DHT22;58605;48.700;8.760;2022-07-30T04:50:59;14.40;99.90
70947;DHT22;58605;48.700;8.760;2022-07-30T04:53:27;14.40;99.90
70947;DHT22;58605;48.700;8.760;2022-07-30T04:55:54;14.50;99.90
70947;DHT22;58605;48.700;8.760;2022-07-30T04:58:23;14.60;99.90
70947;DHT22;58605;48.700;8.760;2022-07-30T05:00:51;14.60;99.90
70947;DHT22;58605;48.700;8.760;2022-07-30T05:03:18;14.70;99.90
70947;DHT22;58605;48.700;8.760;2022-07-30T05:05:46;14.70;99.90
70947;DHT22;58605;48.700;8.760;2022-07-30T05:08:14;14.80;99.90
70947;DHT22;58605;48.700;8.760;2022-07-30T05:10:41;14.90;99.90
70947;DHT22;58605;48.700;8.760;2022-07-30T05:13:10;15.00;99.90
70947;DHT22;58605;48.700;8.760;2022-07-30T05:15:37;15.10;99.90
70947;DHT22;58605;48.700;8.760;2022-07-30T05:18:03;15.20;99.90
70947;DHT22;58605;48.700;8.760;2022-07-30T05:20:30;15.20;99.90
70947;DHT22;58605;48.700;8.760;2022-07-30T05:22:56;15.30;99.90
70947;DHT22;58605;48.700;8.760;2022-07-30T05:25:23;15.40;99.90
70947;DHT22;58605;48.700;8.760;2022-07-30T05:27:50;15.40;99.90
70947;DHT22;58605;48.700;8.760;2022-07-30T05:30:17;15.50;99.90
70947;DHT22;58605;48.700;8.760;2022-07-30T05:32:43;15.60;99.90
70947;DHT22;58605;48.700;8.760;2022-07-30T05:35:09;15.60;99.90
70947;DHT22;58605;48.700;8.760;2022-07-30T05:37:35;15.70;99.90
70947;DHT22;58605;48.700;8.760;2022-07-30T05:40:01;15.90;99.90
70947;DHT22;58605;48.700;8.760;2022-07-30T05:42:29;16.00;99.90
70947;DHT22;58605;48.700;8.760;2022-07-30T05:44:55;16.10;99.90
70947;DHT22;58605;48.700;8.760;2022-07-30T05:47:22;16.20;99.90
70947;DHT22;58605;48.700;8.760;2022-07-30T05:49:48;16.30;99.90
70947;DHT22;58605;48.700;8.760;2022-07-30T05:52:14;16.50;99.90
70947;DHT22;58605;48.700;8.760;2022-07-30T05:54:40;16.50;99.90
70947;DHT22;58605;48.700;8.760;2022-07-30T05:57:06;16.60;99.90
70947;DHT22;58605;48.700;8.760;2022-07-30T05:59:34;16.70;99.90
70947;DHT22;58605;48.700;8.760;2022-07-30T06:02:00;16.80;99.90
70947;DHT22;58605;48.700;8.760;2022-07-30T06:04:27;16.90;99.90
70947;DHT22;58605;48.700;8.760;2022-07-30T06:06:53;17.10;99.90
70947;DHT22;58605;48.700;8.760;2022-07-30T06:09:20;17.30;99.90
70947;DHT22;58605;48.700;8.760;2022-07-30T06:11:46;17.40;99.90
70947;DHT22;58605;48.700;8.760;2022-07-30T06:14:12;17.60;99.90
70947;DHT22;58605;48.700;8.760;2022-07-30T06:16:40;17.80;99.90
70947;DHT22;58605;48.700;8.760;2022-07-30T06:19:06;18.10;99.90
70947;DHT22;58605;48.700;8.760;2022-07-30T06:21:32;18.30;99.90
70947;DHT22;58605;48.700;8.760;2022-07-30T06:23:58;18.40;99.90
70947;DHT22;58605;48.700;8.760;2022-07-30T06:26:24;18.60;95.80
70947;DHT22;58605;48.700;8.760;2022-07-30T06:28:50;18.90;93.90
70947;DHT22;58605;48.700;8.760;2022-07-30T06:31:16;19.10;90.30
70947;DHT22;58605;48.700;8.760;2022-07-30T06:33:44;19.30;87.40
70947;DHT22;58605;48.700;8.760;2022-07-30T06:36:10;19.40;87.40
70947;DHT22;58605;48.700;8.760;2022-07-30T06:38:36;19.50;85.20
70947;DHT22;58605;48.700;8.760;2022-07-30T06:41:02;19.70;85.70
70947;DHT22;58605;48.700;8.760;2022-07-30T06:43:28;19.80;84.10
70947;DHT22;58605;48.700;8.760;2022-07-30T06:45:54;20.00;79.80
70947;DHT22;58605;48.700;8.760;2022-07-30T06:48:21;20.10;78.10
70947;DHT22;58605;48.700;8.760;2022-07-30T06:50:48;20.30;74.70
70947;DHT22;58605;48.700;8.760;2022-07-30T06:53:14;20.40;73.90
70947;DHT22;58605;48.700;8.760;2022-07-30T06:55:40;20.50;72.60
70947;DHT22;58605;48.700;8.760;2022-07-30T06:58:06;20.70;72.90
70947;DHT22;58605;48.700;8.760;2022-07-30T07:00:32;20.80;71.70
70947;DHT22;58605;48.700;8.760;2022-07-30T07:02:59;20.90;70.00
70947;DHT22;58605;48.700;8.760;2022-07-30T07:05:25;21.00;69.40
70947;DHT22;58605;48.700;8.760;2022-07-30T07:07:55;21.00;69.10
70947;DHT22;58605;48.700;8.760;2022-07-30T07:10:22;21.00;68.10
70947;DHT22;58605;48.700;8.760;2022-07-30T07:12:48;21.10;67.10
70947;DHT22;58605;48.700;8.760;2022-07-30T07:15:14;21.10;67.10
70947;DHT22;58605;48.700;8.760;2022-07-30T07:17:40;21.10;65.70
70947;DHT22;58605;48.700;8.760;2022-07-30T07:20:07;21.20;65.00
70947;DHT22;58605;48.700;8.760;2022-07-30T07:22:33;21.30;64.40
70947;DHT22;58605;48.700;8.760;2022-07-30T07:25:01;21.40;65.30
70947;DHT22;58605;48.700;8.760;2022-07-30T07:27:27;21.50;62.50
70947;DHT22;58605;48.700;8.760;2022-07-30T07:29:54;21.60;63.00
70947;DHT22;58605;48.700;8.760;2022-07-30T07:32:20;21.60;60.50
70947;DHT22;58605;48.700;8.760;2022-07-30T07:34:46;21.70;59.90
70947;DHT22;58605;48.700;8.760;2022-07-30T07:37:13;21.80;60.40
70947;DHT22;58605;48.700;8.760;2022-07-30T07:39:40;21.90;59.10
70947;DHT22;58605;48.700;8.760;2022-07-30T07:42:08;21.90;59.50
70947;DHT22;58605;48.700;8.760;2022-07-30T07:44:34;22.00;60.50
70947;DHT22;58605;48.700;8.760;2022-07-30T07:47:00;22.10;60.10
70947;DHT22;58605;48.700;8.760;2022-07-30T07:49:26;22.10;60.30
70947;DHT22;58605;48.700;8.760;2022-07-30T07:51:52;21.90;60.60
70947;DHT22;58605;48.700;8.760;2022-07-30T07:54:18;22.00;59.40
70947;DHT22;58605;48.700;8.760;2022-07-30T07:56:45;21.80;59.20
70947;DHT22;58605;48.700;8.760;2022-07-30T07:59:13;21.90;58.50
70947;DHT22;58605;48.700;8.760;2022-07-30T08:01:39;22.00;60.80
70947;DHT22;58605;48.700;8.760;2022-07-30T08:04:05;22.20;58.40
70947;DHT22;58605;48.700;8.760;2022-07-30T08:06:31;22.40;57.80
70947;DHT22;58605;48.700;8.760;2022-07-30T08:08:58;22.40;56.60
70947;DHT22;58605;48.700;8.760;2022-07-30T08:11:26;22.30;58.10
70947;DHT22;58605;48.700;8.760;2022-07-30T08:13:52;22.20;58.40
70947;DHT22;58605;48.700;8.760;2022-07-30T08:16:20;21.90;59.00
70947;DHT22;58605;48.700;8.760;2022-07-30T08:18:46;21.70;60.80
70947;DHT22;58605;48.700;8.760;2022-07-30T08:21:12;21.50;60.90
70947;DHT22;58605;48.700;8.760;2022-07-30T08:23:40;21.40;61.40
70947;DHT22;58605;48.700;8.760;2022-07-30T08:26:06;21.30;61.10
70947;DHT22;58605;48.700;8.760;2022-07-30T08:28:38;21.70;57.60
70947;DHT22;58605;48.700;8.760;2022-07-30T08:31:04;21.70;61.20
70947;DHT22;58605;48.700;8.760;2022-07-30T08:33:32;21.90;58.20
70947;DHT22;58605;48.700;8.760;2022-07-30T08:35:58;22.20;57.40
70947;DHT22;58605;48.700;8.760;2022-07-30T08:38:24;22.30;56.60
70947;DHT22;58605;48.700;8.760;2022-07-30T08:40:54;22.30;58.70
70947;DHT22;58605;48.700;8.760;2022-07-30T08:43:20;22.00;58.40
70947;DHT22;58605;48.700;8.760;2022-07-30T08:45:49;22.30;57.50
70947;DHT22;58605;48.700;8.760;2022-07-30T08:48:17;22.40;56.60
70947;DHT22;58605;48.700;8.760;2022-07-30T08:50:46;22.50;57.10
70947;DHT22;58605;48.700;8.760;2022-07-30T08:53:13;22.50;56.70
70947;DHT22;58605;48.700;8.760;2022-07-30T08:55:47;22.30;58.20
70947;DHT22;58605;48.700;8.760;2022-07-30T08:58:22;22.30;57.30
70947;DHT22;58605;48.700;8.760;2022-07-30T09:00:51;22.30;56.20
70947;DHT22;58605;48.700;8.760;2022-07-30T09:03:17;22.40;56.00
70947;DHT22;58605;48.700;8.760;2022-07-30T09:05:43;22.40;55.80
70947;DHT22;58605;48.700;8.760;2022-07-30T09:08:11;22.60;55.50
70947;DHT22;58605;48.700;8.760;2022-07-30T09:10:37;22.70;55.30
70947;DHT22;58605;48.700;8.760;2022-07-30T09:13:03;22.90;55.80
70947;DHT22;58605;48.700;8.760;2022-07-30T09:15:29;22.90;54.20
70947;DHT22;58605;48.700;8.760;2022-07-30T09:17:58;22.80;56.00
70947;DHT22;58605;48.700;8.760;2022-07-30T09:20:34;22.40;56.90
70947;DHT22;58605;48.700;8.760;2022-07-30T09:23:02;22.70;55.30
70947;DHT22;58605;48.700;8.760;2022-07-30T09:25:36;22.80;55.00
70947;DHT22;58605;48.700;8.760;2022-07-30T09:28:02;22.90;55.10
70947;DHT22;58605;48.700;8.760;2022-07-30T09:30:42;23.00;54.70
70947;DHT22;58605;48.700;8.760;2022-07-30T09:33:12;22.70;57.20
70947;DHT22;58605;48.700;8.760;2022-07-30T09:35:39;22.40;57.20
70947;DHT22;58605;48.700;8.760;2022-07-30T09:38:06;22.40;57.70
70947;DHT22;58605;48.700;8.760;2022-07-30T09:40:34;22.30;58.00
70947;DHT22;58605;48.700;8.760;2022-07-30T09:43:05;22.20;58.30
70947;DHT22;58605;48.700;8.760;2022-07-30T09:45:31;22.30;58.20
70947;DHT22;58605;48.700;8.760;2022-07-30T09:47:58;22.60;56.10
70947;DHT22;58605;48.700;8.760;2022-07-30T09:50:24;22.40;57.70
70947;DHT22;58605;48.700;8.760;2022-07-30T09:52:52;22.40;57.70
70947;DHT22;58605;48.700;8.760;2022-07-30T09:55:29;22.20;58.10
70947;DHT22;58605;48.700;8.760;2022-07-30T09:57:59;22.10;58.40
70947;DHT22;58605;48.700;8.760;2022-07-30T10:00:27;22.20;57.20
70947;DHT22;58605;48.700;8.760;2022-07-30T10:02:54;22.40;56.80
70947;DHT22;58605;48.700;8.760;2022-07-30T10:05:21;22.40;58.00
70947;DHT22;58605;48.700;8.760;2022-07-30T10:07:50;22.50;57.10
70947;DHT22;58605;48.700;8.760;2022-07-30T10:10:19;22.30;58.60
70947;DHT22;58605;48.700;8.760;2022-07-30T10:12:47;22.00;58.70
70947;DHT22;58605;48.700;8.760;2022-07-30T10:15:18;21.90;58.60
70947;DHT22;58605;48.700;8.760;2022-07-30T10:17:45;21.70;59.30
70947;DHT22;58605;48.700;8.760;2022-07-30T10:20:12;21.70;59.20
70947;DHT22;58605;48.700;8.760;2022-07-30T10:22:39;21.50;61.60
70947;DHT22;58605;48.700;8.760;2022-07-30T10:25:08;21.60;58.70
70947;DHT22;58605;48.700;8.760;2022-07-30T10:27:34;21.70;58.60
70947;DHT22;58605;48.700;8.760;2022-07-30T10:30:01;21.70;59.60
70947;DHT22;58605;48.700;8.760;2022-07-30T10:32:30;21.50;59.50
70947;DHT22;58605;48.700;8.760;2022-07-30T10:34:57;21.40;60.40
70947;DHT22;58605;48.700;8.760;2022-07-30T10:37:25;22.20;56.60
70947;DHT22;58605;48.700;8.760;2022-07-30T10:39:55;22.60;55.60
70947;DHT22;58605;48.700;8.760;2022-07-30T10:42:33;22.50;57.40
70947;DHT22;58605;48.700;8.760;2022-07-30T10:45:18;22.70;54.50
70947;DHT22;58605;48.700;8.760;2022-07-30T10:47:46;23.20;53.40
70947;DHT22;58605;48.700;8.760;2022-07-30T10:50:14;23.60;53.00
70947;DHT22;58605;48.700;8.760;2022-07-30T10:52:49;23.80;52.90
70947;DHT22;58605;48.700;8.760;2022-07-30T10:55:16;23.80;53.40
70947;DHT22;58605;48.700;8.760;2022-07-30T10:57:58;23.40;54.20
70947;DHT22;58605;48.700;8.760;2022-07-30T11:00:25;23.10;55.10
70947;DHT22;58605;48.700;8.760;2022-07-30T11:03:12;22.80;55.10
70947;DHT22;58605;48.700;8.760;2022-07-30T11:05:38;22.90;55.10
70947;DHT22;58605;48.700;8.760;2022-07-30T11:08:31;22.80;54.90
70947;DHT22;58605;48.700;8.760;2022-07-30T11:10:58;22.70;55.80
70947;DHT22;58605;48.700;8.760;2022-07-30T11:13:48;23.40;53.20
70947;DHT22;58605;48.700;8.760;2022-07-30T11:16:17;23.30;54.40
70947;DHT22;58605;48.700;8.760;2022-07-30T11:19:04;23.50;52.70
70947;DHT22;58605;48.700;8.760;2022-07-30T11:21:32;23.60;54.00
70947;DHT22;58605;48.700;8.760;2022-07-30T11:23:59;23.10;54.20
70947;DHT22;58605;48.700;8.760;2022-07-30T11:26:48;22.60;56.60
70947;DHT22;58605;48.700;8.760;2022-07-30T11:29:35;22.40;56.40
70947;DHT22;58605;48.700;8.760;2022-07-30T11:32:23;22.30;56.50
70947;DHT22;58605;48.700;8.760;2022-07-30T11:35:11;22.20;55.50
70947;DHT22;58605;48.700;8.760;2022-07-30T11:37:56;22.90;54.50
70947;DHT22;58605;48.700;8.760;2022-07-30T11:40:23;22.90;55.10
70947;DHT22;58605;48.700;8.760;2022-07-30T11:42:51;22.60;56.30
70947;DHT22;58605;48.700;8.760;2022-07-30T11:45:24;23.20;53.90
70947;DHT22;58605;48.700;8.760;2022-07-30T11:47:54;23.30;54.20
70947;DHT22;58605;48.700;8.760;2022-07-30T11:50:23;23.40;53.90
70947;DHT22;58605;48.700;8.760;2022-07-30T11:52:50;23.00;55.00
70947;DHT22;58605;48.700;8.760;2022-07-30T11:55:27;22.90;55.30
70947;DHT22;58605;48.700;8.760;2022-07-30T11:57:54;23.40;52.60
70947;DHT22;58605;48.700;8.760;2022-07-30T12:00:21;23.30;53.90
70947;DHT22;58605;48.700;8.760;2022-07-30T12:02:49;23.10;54.70
70947;DHT22;58605;48.700;8.760;2022-07-30T12:05:23;23.00;54.60
70947;DHT22;58605;48.700;8.760;2022-07-30T12:07:51;22.70;55.10
70947;DHT22;58605;48.700;8.760;2022-07-30T12:10:20;22.60;55.50
70947;DHT22;58605;48.700;8.760;2022-07-30T12:12:46;22.80;53.80
70947;DHT22;58605;48.700;8.760;2022-07-30T12:15:28;23.40;52.70
70947;DHT22;58605;48.700;8.760;2022-07-30T12:17:54;24.20;50.30
70947;DHT22;58605;48.700;8.760;2022-07-30T12:20:21;24.60;49.80
70947;DHT22;58605;48.700;8.760;2022-07-30T12:22:48;24.70;48.90
70947;DHT22;58605;48.700;8.760;2022-07-30T12:25:14;24.20;51.10
70947;DHT22;58605;48.700;8.760;2022-07-30T12:27:44;24.00;50.70
70947;DHT22;58605;48.700;8.760;2022-07-30T12:30:13;24.50;49.10
70947;DHT22;58605;48.700;8.760;2022-07-30T12:32:40;24.50;50.00
70947;DHT22;58605;48.700;8.760;2022-07-30T12:35:07;24.10;51.30
70947;DHT22;58605;48.700;8.760;2022-07-30T12:37:33;23.80;52.20
70947;DHT22;58605;48.700;8.760;2022-07-30T12:40:10;23.60;52.40
70947;DHT22;58605;48.700;8.760;2022-07-30T12:42:48;23.40;53.30
70947;DHT22;58605;48.700;8.760;2022-07-30T12:45:26;23.90;53.00
70947;DHT22;58605;48.700;8.760;2022-07-30T12:47:52;24.10;52.20
70947;DHT22;58605;48.700;8.760;2022-07-30T12:50:18;23.60;53.20
70947;DHT22;58605;48.700;8.760;2022-07-30T12:52:48;23.40;53.60
70947;DHT22;58605;48.700;8.760;2022-07-30T12:55:18;24.10;52.80
70947;DHT22;58605;48.700;8.760;2022-07-30T12:57:55;24.70;52.00
70947;DHT22;58605;48.700;8.760;2022-07-30T13:00:22;24.20;52.30
70947;DHT22;58605;48.700;8.760;2022-07-30T13:02:48;24.20;52.10
70947;DHT22;58605;48.700;8.760;2022-07-30T13:05:15;23.80;53.10
70947;DHT22;58605;48.700;8.760;2022-07-30T13:07:55;23.70;53.60
70947;DHT22;58605;48.700;8.760;2022-07-30T13:10:23;23.80;53.60
70947;DHT22;58605;48.700;8.760;2022-07-30T13:12:49;23.60;53.80
70947;DHT22;58605;48.700;8.760;2022-07-30T13:15:20;24.10;53.00
70947;DHT22;58605;48.700;8.760;2022-07-30T13:17:47;23.80;53.40
70947;DHT22;58605;48.700;8.760;2022-07-30T13:20:14;23.40;54.40
70947;DHT22;58605;48.700;8.760;2022-07-30T13:22:40;23.30;54.20
70947;DHT22;58605;48.700;8.760;2022-07-30T13:25:07;23.20;54.00
70947;DHT22;58605;48.700;8.760;2022-07-30T13:27:35;23.60;54.00
70947;DHT22;58605;48.700;8.760;2022-07-30T13:30:02;23.50;54.20
70947;DHT22;58605;48.700;8.760;2022-07-30T13:32:29;23.30;54.50
70947;DHT22;58605;48.700;8.760;2022-07-30T13:34:56;23.20;54.70
70947;DHT22;58605;48.700;8.760;2022-07-30T13:37:22;24.10;52.80
70947;DHT22;58605;48.700;8.760;2022-07-30T13:39:48;24.60;51.10
70947;DHT22;58605;48.700;8.760;2022-07-30T13:42:14;24.70;51.70
70947;DHT22;58605;48.700;8.760;2022-07-30T13:44:42;25.30;50.60
70947;DHT22;58605;48.700;8.760;2022-07-30T13:47:08;25.10;50.20
70947;DHT22;58605;48.700;8.760;2022-07-30T13:49:34;25.10;50.50
70947;DHT22;58605;48.700;8.760;2022-07-30T13:52:03;24.90;50.50
70947;DHT22;58605;48.700;8.760;2022-07-30T13:54:30;24.60;51.50
70947;DHT22;58605;48.700;8.760;2022-07-30T13:56:56;24.30;52.20
70947;DHT22;58605;48.700;8.760;2022-07-30T13:59:22;23.80;53.10
70947;DHT22;58605;48.700;8.760;2022-07-30T14:01:50;23.40;54.80
70947;DHT22;58605;48.700;8.760;2022-07-30T14:04:16;23.20;54.80
70947;DHT22;58605;48.700;8.760;2022-07-30T14:06:42;23.10;55.10
70947;DHT22;58605;48.700;8.760;2022-07-30T14:09:08;23.20;54.80
70947;DHT22;58605;48.700;8.760;2022-07-30T14:11:35;23.30;54.80
70947;DHT22;58605;48.700;8.760;2022-07-30T14:14:01;23.60;53.20
70947;DHT22;58605;48.700;8.760;2022-07-30T14:16:27;23.40;54.40
70947;DHT22;58605;48.700;8.760;2022-07-30T14:18:55;23.10;55.10
70947;DHT22;58605;48.700;8.760;2022-07-30T14:21:22;23.60;52.40
70947;DHT22;58605;48.700;8.760;2022-07-30T14:23:48;23.60;53.50
70947;DHT22;58605;48.700;8.760;2022-07-30T14:26:14;23.90;51.80
70947;DHT22;58605;48.700;8.760;2022-07-30T14:28:40;23.80;52.10
70947;DHT22;58605;48.700;8.760;2022-07-30T14:31:06;23.80;52.50
70947;DHT22;58605;48.700;8.760;2022-07-30T14:33:33;23.80;53.30
70947;DHT22;58605;48.700;8.760;2022-07-30T14:36:00;24.00;52.70
70947;DHT22;58605;48.700;8.760;2022-07-30T14:38:26;23.60;53.60
70947;DHT22;58605;48.700;8.760;2022-07-30T14:40:52;23.30;54.30
70947;DHT22;58605;48.700;8.760;2022-07-30T14:43:19;23.10;54.90
70947;DHT22;58605;48.700;8.760;2022-07-30T14:45:45;23.40;53.30
70947;DHT22;58605;48.700;8.760;2022-07-30T14:48:15;24.10;52.50
70947;DHT22;58605;48.700;8.760;2022-07-30T14:50:42;23.60;53.50
70947;DHT22;58605;48.700;8.760;2022-07-30T14:53:09;23.90;52.60
70947;DHT22;58605;48.700;8.760;2022-07-30T14:55:35;24.00;53.00
70947;DHT22;58605;48.700;8.760;2022-07-30T14:58:02;23.60;53.60
70947;DHT22;58605;48.700;8.760;2022-07-30T15:00:28;23.50;53.20
70947;DHT22;58605;48.700;8.760;2022-07-30T15:02:54;23.60;53.30
70947;DHT22;58605;48.700;8.760;2022-07-30T15:05:20;23.30;54.00
70947;DHT22;58605;48.700;8.760;2022-07-30T15:07:46;23.10;55.10
70947;DHT22;58605;48.700;8.760;2022-07-30T15:10:14;23.10;54.90
70947;DHT22;58605;48.700;8.760;2022-07-30T15:12:40;23.10;54.50
70947;DHT22;58605;48.700;8.760;2022-07-30T15:15:07;23.00;54.90
70947;DHT22;58605;48.700;8.760;2022-07-30T15:17:34;23.00;54.70
70947;DHT22;58605;48.700;8.760;2022-07-30T15:20:02;22.90;54.80
70947;DHT22;58605;48.700;8.760;2022-07-30T15:22:29;23.00;55.10
70947;DHT22;58605;48.700;8.760;2022-07-30T15:24:55;23.00;55.40
70947;DHT22;58605;48.700;8.760;2022-07-30T15:27:22;22.90;55.60
70947;DHT22;58605;48.700;8.760;2022-07-30T15:29:49;23.00;54.70
70947;DHT22;58605;48.700;8.760;2022-07-30T15:32:15;23.00;54.90
70947;DHT22;58605;48.700;8.760;2022-07-30T15:34:42;23.10;55.50
70947;DHT22;58605;48.700;8.760;2022-07-30T15:37:08;22.90;55.60